Impacts TAF Board
For situational awareness. Not to be used for flight planning purposes.
IDs:

KGRK - Killeen-Ft Hood Rgnl, TX, US

Issued at 1600 UTC 02 Oct 2022
Updated at 2037 UTC 02 Oct 2022
Potential Impact None Slight Moderate High
Time<<03/09Z 03/10Z 03/11Z 03/12Z 03/13Z 03/14Z 03/15Z 03/16Z 03/17Z 03/18Z 03/19Z 03/20Z 03/21Z>>
Type PRVL PRVL PRVL PRVL PRVL PRVL PRVL PRVL PRVL PRVL PRVL PRVL PRVL
VIS >6 >6 >6 >6 >6 >6 >6 >6 >6 >6 >6 >6 >6
CIG -- -- -- -- -- -- -- -- -- -- -- -- --
Cover SKC SKC SKC SKC SKC SKC SKC SKC SKC SKC SKC SKC SKC
FltCat VFR VFR VFR VFR VFR VFR VFR VFR VFR VFR VFR VFR VFR
WX -- -- -- -- -- -- -- -- -- -- -- -- --
WDir 70 70 70 70 70 70 70 70 70 70 70 70 70
WSpd 6 6 6 6 6 6 6 6 6 6 6 6 6
WGst -- -- -- -- -- -- -- -- -- -- -- -- --
WSHgt -- -- -- -- -- -- -- -- -- -- -- -- --
WSDir -- -- -- -- -- -- -- -- -- -- -- -- --
WSSpd -- -- -- -- -- -- -- -- -- -- -- -- --
Raw TAF
TAF KGRK 021600Z 0216/0322 07006KT 9999 SKC QNH3009INS TX29/0221Z TN11/0312Z

METAR Board
Radar Display
Forecast Discussion
For situational awareness. Not to be used for flight planning purposes.